createdAt,value
2023-01-22T00:01:04.525Z,3.85
2023-01-22T00:03:31.556Z,3.92
2023-01-22T00:05:58.207Z,3.87
2023-01-22T00:08:24.978Z,3.91
2023-01-22T00:10:52.962Z,3.93
2023-01-22T00:13:20.939Z,3.92
2023-01-22T00:15:48.094Z,3.83
2023-01-22T00:18:15.223Z,3.88
2023-01-22T00:20:46.842Z,3.98
2023-01-22T00:23:13.520Z,4.09
2023-01-22T00:25:40.203Z,4.15
2023-01-22T00:28:07.451Z,4.20
2023-01-22T00:30:34.221Z,4.23
2023-01-22T00:33:00.866Z,4.28
2023-01-22T00:35:28.493Z,4.24
2023-01-22T00:37:55.138Z,4.19
2023-01-22T00:40:22.266Z,4.18
2023-01-22T00:42:48.895Z,4.28
2023-01-22T00:45:16.006Z,4.33
2023-01-22T00:47:42.791Z,4.32
2023-01-22T00:50:10.230Z,4.37
2023-01-22T00:52:37.748Z,4.40
2023-01-22T00:55:05.260Z,4.40
2023-01-22T00:57:32.013Z,4.40
2023-01-22T00:59:59.341Z,4.46
2023-01-22T01:02:29.061Z,4.41
2023-01-22T01:04:56.853Z,4.44
2023-01-22T01:07:23.770Z,4.40
2023-01-22T01:09:50.848Z,4.36
2023-01-22T01:12:17.485Z,4.35
2023-01-22T01:14:44.215Z,4.25
2023-01-22T01:17:10.935Z,4.32
2023-01-22T01:19:37.651Z,4.32
2023-01-22T01:22:05.983Z,4.32
2023-01-22T01:24:32.577Z,4.29
2023-01-22T01:26:59.183Z,4.36
2023-01-22T01:29:25.919Z,4.39
2023-01-22T01:31:54.460Z,4.44
2023-01-22T01:34:21.254Z,4.46
2023-01-22T01:36:49.615Z,4.62
2023-01-22T01:39:17.159Z,4.60
2023-01-22T01:41:43.806Z,4.48
2023-01-22T01:44:14.179Z,4.48
2023-01-22T01:46:52.842Z,4.69
2023-01-22T01:49:33.184Z,4.61
2023-01-22T01:52:03.026Z,4.64
2023-01-22T01:54:30.884Z,4.60
2023-01-22T01:57:03.966Z,4.58
2023-01-22T01:59:33.556Z,4.58
2023-01-22T02:02:02.461Z,4.57
2023-01-22T02:04:29.405Z,4.45
2023-01-22T02:06:56.092Z,4.49
2023-01-22T02:09:23.014Z,4.52
2023-01-22T02:11:51.504Z,4.42
2023-01-22T02:14:23.329Z,4.39
2023-01-22T02:17:00.560Z,4.41
2023-01-22T02:19:27.268Z,4.39
2023-01-22T02:21:53.996Z,4.36
2023-01-22T02:24:20.674Z,4.33
2023-01-22T02:26:47.886Z,4.45
2023-01-22T02:29:18.901Z,4.41
2023-01-22T02:31:45.689Z,4.39
2023-01-22T02:34:13.251Z,4.34
2023-01-22T02:36:40.373Z,4.33
2023-01-22T02:39:07.280Z,4.37
2023-01-22T02:41:33.997Z,4.34
2023-01-22T02:44:00.760Z,4.37
2023-01-22T02:46:28.180Z,4.45
2023-01-22T02:48:54.868Z,4.49
2023-01-22T02:51:21.819Z,4.52
2023-01-22T02:53:49.854Z,4.59
2023-01-22T02:56:17.030Z,4.55
2023-01-22T02:58:43.754Z,4.60
2023-01-22T03:01:20.476Z,4.59
2023-01-22T03:03:51.759Z,4.58
2023-01-22T03:06:23.890Z,4.60
2023-01-22T03:08:53.666Z,4.66
2023-01-22T03:11:20.784Z,4.64
2023-01-22T03:14:08.570Z,4.61
2023-01-22T03:16:54.309Z,4.60
2023-01-22T03:19:40.031Z,4.62
2023-01-22T03:22:12.581Z,4.67
2023-01-22T03:24:39.218Z,4.67
2023-01-22T03:27:06.451Z,4.72
2023-01-22T03:29:34.008Z,4.74
2023-01-22T03:32:01.376Z,4.73
2023-01-22T03:34:28.299Z,4.70
2023-01-22T03:36:56.638Z,4.65
2023-01-22T03:39:23.591Z,4.64
2023-01-22T03:41:51.009Z,4.69
2023-01-22T03:44:17.704Z,4.72
2023-01-22T03:46:44.592Z,4.68
2023-01-22T03:49:13.978Z,4.69
2023-01-22T03:51:41.965Z,4.70
2023-01-22T03:54:12.111Z,4.72
2023-01-22T03:56:39.232Z,4.69
2023-01-22T03:59:14.980Z,4.67
2023-01-22T04:01:41.630Z,4.68
2023-01-22T04:04:08.791Z,4.72
2023-01-22T04:06:35.527Z,4.80
2023-01-22T04:09:02.949Z,4.80
2023-01-22T04:11:37.500Z,4.89
2023-01-22T04:14:07.978Z,4.91
2023-01-22T04:16:36.265Z,5.01
2023-01-22T04:19:09.833Z,5.05
2023-01-22T04:21:36.456Z,5.09
2023-01-22T04:24:05.718Z,5.11
2023-01-22T04:26:32.939Z,5.18
2023-01-22T04:29:02.106Z,5.19
2023-01-22T04:31:29.464Z,5.15
2023-01-22T04:34:28.360Z,5.14
2023-01-22T04:37:01.944Z,5.20
2023-01-22T04:39:31.968Z,5.16
2023-01-22T04:41:59.275Z,5.17
2023-01-22T04:44:26.176Z,5.22
2023-01-22T04:46:53.399Z,5.28
2023-01-22T04:49:20.171Z,5.28
2023-01-22T04:51:48.428Z,5.33
2023-01-22T04:54:15.142Z,5.34
2023-01-22T04:56:41.779Z,5.33
2023-01-22T04:59:08.430Z,5.26
2023-01-22T05:01:35.437Z,5.29
2023-01-22T05:04:03.578Z,5.33
2023-01-22T05:06:33.331Z,5.26
2023-01-22T05:09:01.634Z,5.25
2023-01-22T05:11:32.563Z,5.30
2023-01-22T05:14:02.474Z,5.21
2023-01-22T05:16:29.539Z,5.28
2023-01-22T05:18:56.151Z,5.22
2023-01-22T05:21:23.169Z,5.23
2023-01-22T05:23:49.832Z,5.27
2023-01-22T05:26:17.047Z,5.28
2023-01-22T05:29:11.988Z,5.28
2023-01-22T05:31:59.238Z,5.25
2023-01-22T05:34:32.199Z,5.25
2023-01-22T05:36:59.766Z,5.30
2023-01-22T05:39:27.897Z,5.28
2023-01-22T05:41:57.164Z,5.32
2023-01-22T05:44:24.093Z,5.31
2023-01-22T05:46:53.001Z,5.32
2023-01-22T05:49:27.633Z,5.38
2023-01-22T05:51:56.401Z,5.37
2023-01-22T05:54:23.056Z,5.38
2023-01-22T05:56:50.684Z,5.35
2023-01-22T05:59:17.893Z,5.34
2023-01-22T06:01:50.685Z,5.35
2023-01-22T06:04:18.312Z,5.40
2023-01-22T06:06:44.995Z,5.40
2023-01-22T06:09:13.857Z,5.37
2023-01-22T06:11:41.364Z,5.37
2023-01-22T06:14:08.180Z,5.39
2023-01-22T06:16:34.909Z,5.43
2023-01-22T06:19:12.806Z,5.44
2023-01-22T06:21:59.821Z,5.46
2023-01-22T06:24:43.441Z,5.51
2023-01-22T06:27:10.705Z,5.53
2023-01-22T06:29:47.694Z,5.53
2023-01-22T06:32:15.110Z,5.51
2023-01-22T06:34:41.753Z,5.52
2023-01-22T06:37:08.401Z,5.48
2023-01-22T06:39:37.807Z,5.50
2023-01-22T06:42:11.385Z,5.48
2023-01-22T06:44:38.097Z,5.53
2023-01-22T06:47:04.788Z,5.46
2023-01-22T06:49:31.512Z,5.49
2023-01-22T06:51:58.159Z,5.50
2023-01-22T06:54:24.879Z,5.54
2023-01-22T06:56:51.711Z,5.49
2023-01-22T06:59:21.491Z,5.51
2023-01-22T07:01:48.220Z,5.52
2023-01-22T07:04:14.996Z,5.52
2023-01-22T07:06:41.644Z,5.53
2023-01-22T07:09:08.240Z,5.58
2023-01-22T07:11:34.946Z,5.59
2023-01-22T07:14:01.667Z,5.69
2023-01-22T07:16:28.390Z,5.68
2023-01-22T07:18:55.082Z,5.65
2023-01-22T07:21:21.727Z,5.61
2023-01-22T07:23:48.336Z,5.62
2023-01-22T07:26:15.875Z,5.64
2023-01-22T07:28:43.719Z,5.68
2023-01-22T07:31:11.551Z,5.72
2023-01-22T07:33:38.398Z,5.72
2023-01-22T07:36:05.591Z,5.70
2023-01-22T07:38:32.212Z,5.78
2023-01-22T07:41:16.969Z,5.79
2023-01-22T07:43:49.259Z,5.86
2023-01-22T07:46:16.472Z,5.85
2023-01-22T07:48:45.627Z,5.80
2023-01-22T07:51:12.670Z,5.92
2023-01-22T07:53:40.102Z,5.93
2023-01-22T07:56:07.153Z,5.93
2023-01-22T07:58:33.859Z,6.00
2023-01-22T08:01:00.683Z,5.96
2023-01-22T08:03:27.337Z,5.92
2023-01-22T08:05:54.034Z,5.89
2023-01-22T08:08:20.676Z,5.89
2023-01-22T08:10:47.698Z,5.88
2023-01-22T08:13:14.957Z,5.90
2023-01-22T08:15:42.505Z,5.89
2023-01-22T08:18:11.057Z,5.91
2023-01-22T08:20:38.109Z,5.86
2023-01-22T08:23:04.752Z,5.89
2023-01-22T08:25:31.423Z,5.88
2023-01-22T08:28:01.973Z,5.92
2023-01-22T08:30:28.656Z,5.97
2023-01-22T08:32:55.371Z,5.87
2023-01-22T08:35:24.377Z,5.92
2023-01-22T08:37:51.169Z,5.94
2023-01-22T08:40:18.324Z,5.97
2023-01-22T08:42:51.286Z,5.96
2023-01-22T08:45:17.974Z,5.87
2023-01-22T08:47:44.618Z,5.82
2023-01-22T08:50:11.629Z,5.81
2023-01-22T08:52:38.352Z,5.89
2023-01-22T08:55:06.793Z,5.90
2023-01-22T08:57:33.385Z,5.87
2023-01-22T09:00:01.556Z,5.90
2023-01-22T09:02:28.542Z,5.87
2023-01-22T09:04:55.326Z,5.89
2023-01-22T09:07:22.317Z,5.96
2023-01-22T09:09:49.376Z,6.00
2023-01-22T09:12:16.099Z,6.11
2023-01-22T09:14:42.755Z,6.13
2023-01-22T09:17:09.398Z,6.14
2023-01-22T09:19:36.041Z,6.22
2023-01-22T09:22:06.453Z,6.26
2023-01-22T09:24:33.742Z,6.28
2023-01-22T09:27:00.446Z,6.27
2023-01-22T09:29:27.139Z,6.30
2023-01-22T09:31:53.848Z,6.38
2023-01-22T09:34:20.481Z,6.37
2023-01-22T09:36:47.117Z,6.39
2023-01-22T09:39:13.820Z,6.38
2023-01-22T09:41:46.617Z,6.38
2023-01-22T09:44:35.327Z,6.37
2023-01-22T09:47:12.038Z,6.36
2023-01-22T09:49:51.099Z,6.47
2023-01-22T09:52:18.035Z,6.52
2023-01-22T09:54:44.703Z,6.50
2023-01-22T09:57:29.979Z,6.58
2023-01-22T09:59:58.237Z,6.60
2023-01-22T10:02:30.198Z,6.56
2023-01-22T10:05:01.945Z,6.53
2023-01-22T10:07:38.202Z,6.55
2023-01-22T10:10:19.627Z,6.53
2023-01-22T10:12:55.432Z,6.56
2023-01-22T10:15:24.206Z,6.56
2023-01-22T10:17:52.174Z,6.58
2023-01-22T10:20:21.078Z,6.55
2023-01-22T10:22:48.959Z,6.61
2023-01-22T10:25:16.549Z,6.56
2023-01-22T10:27:45.946Z,6.45
2023-01-22T10:30:12.561Z,6.51
2023-01-22T10:32:39.185Z,6.55
2023-01-22T10:35:14.552Z,6.56
2023-01-22T10:37:53.451Z,6.66
2023-01-22T10:40:40.994Z,6.61
2023-01-22T10:43:13.830Z,6.71
2023-01-22T10:46:17.524Z,6.80
2023-01-22T10:48:44.379Z,6.79
2023-01-22T10:51:19.795Z,6.76
2023-01-22T10:53:54.348Z,6.80
2023-01-22T10:56:32.015Z,6.90
2023-01-22T10:59:02.231Z,6.88
2023-01-22T11:01:35.698Z,6.98
2023-01-22T11:04:31.131Z,7.06
2023-01-22T11:06:59.965Z,7.00
2023-01-22T11:09:49.275Z,7.17
2023-01-22T11:12:17.766Z,7.20
2023-01-22T11:14:47.606Z,7.22
2023-01-22T11:17:23.225Z,7.29
2023-01-22T11:20:05.609Z,7.31
2023-01-22T11:22:39.512Z,7.24
2023-01-22T11:25:11.162Z,7.18
2023-01-22T11:27:54.910Z,7.09
2023-01-22T11:30:46.304Z,7.00
2023-01-22T11:33:27.944Z,6.93
2023-01-22T11:36:09.751Z,7.05
2023-01-22T11:38:41.001Z,7.14
2023-01-22T11:41:27.350Z,7.13
2023-01-22T11:44:42.312Z,7.02
2023-01-22T11:47:26.949Z,6.91
2023-01-22T11:50:21.233Z,7.07
2023-01-22T11:52:54.349Z,7.02
2023-01-22T11:56:04.492Z,7.01
2023-01-22T11:58:48.559Z,6.91
2023-01-22T12:01:32.327Z,6.86
2023-01-22T12:04:25.261Z,6.73
2023-01-22T12:07:16.855Z,6.82
2023-01-22T12:10:31.742Z,6.80
2023-01-22T12:13:16.328Z,6.74
2023-01-22T12:16:06.697Z,6.85
2023-01-22T12:18:51.828Z,6.96
2023-01-22T12:21:33.482Z,6.92
2023-01-22T12:24:15.101Z,6.97
2023-01-22T12:26:47.881Z,6.94
2023-01-22T12:29:23.489Z,7.10
2023-01-22T12:31:59.178Z,7.17
2023-01-22T12:34:38.817Z,7.19
2023-01-22T12:37:07.856Z,7.20
2023-01-22T12:39:40.631Z,7.29
2023-01-22T12:42:49.044Z,7.31
2023-01-22T12:45:25.562Z,7.32
2023-01-22T12:48:05.078Z,7.36
2023-01-22T12:50:31.702Z,7.47
2023-01-22T12:53:04.278Z,7.43
2023-01-22T12:55:32.869Z,7.47
2023-01-22T12:57:59.615Z,7.53
2023-01-22T13:00:38.942Z,7.55
2023-01-22T13:03:32.974Z,7.55
2023-01-22T13:06:01.587Z,7.50
2023-01-22T13:08:44.793Z,7.49
2023-01-22T13:11:28.352Z,7.45
2023-01-22T13:14:23.563Z,7.40
2023-01-22T13:16:59.991Z,7.33
2023-01-22T13:19:31.660Z,7.36
2023-01-22T13:22:00.234Z,7.40
2023-01-22T13:24:26.949Z,7.39
2023-01-22T13:26:59.837Z,7.41
2023-01-22T13:29:37.370Z,7.46
2023-01-22T13:32:19.621Z,7.47
2023-01-22T13:34:46.558Z,7.36
2023-01-22T13:37:24.255Z,7.32
2023-01-22T13:39:51.149Z,7.37
2023-01-22T13:42:18.507Z,7.39
2023-01-22T13:44:49.643Z,7.37
2023-01-22T13:47:33.110Z,7.33
2023-01-22T13:50:00.162Z,7.37
2023-01-22T13:52:28.909Z,7.32
2023-01-22T13:55:16.547Z,7.38
2023-01-22T13:57:47.848Z,7.37
2023-01-22T14:00:23.128Z,7.38
2023-01-22T14:02:50.276Z,7.43
2023-01-22T14:05:22.712Z,7.35
2023-01-22T14:07:50.654Z,7.29
2023-01-22T14:10:23.940Z,7.30
2023-01-22T14:13:04.899Z,7.21
2023-01-22T14:15:32.995Z,7.15
2023-01-22T14:18:09.865Z,7.16
2023-01-22T14:20:42.603Z,7.08
2023-01-22T14:23:09.602Z,6.93
2023-01-22T14:25:55.823Z,7.01
2023-01-22T14:28:24.149Z,7.04
2023-01-22T14:30:51.757Z,7.08
2023-01-22T14:33:25.137Z,7.05
2023-01-22T14:35:53.513Z,7.09
2023-01-22T14:38:20.419Z,7.08
2023-01-22T14:40:47.263Z,7.07
2023-01-22T14:43:13.972Z,7.10
2023-01-22T14:45:41.580Z,7.18
2023-01-22T14:48:11.485Z,7.10
2023-01-22T14:50:39.720Z,7.00
2023-01-22T14:53:07.341Z,7.00
2023-01-22T14:55:34.067Z,6.94
2023-01-22T14:58:01.712Z,6.99
2023-01-22T15:00:29.353Z,7.02
2023-01-22T15:02:57.295Z,7.01
2023-01-22T15:05:25.192Z,6.95
2023-01-22T15:07:51.961Z,7.00
2023-01-22T15:10:19.535Z,6.90
2023-01-22T15:12:51.216Z,6.90
2023-01-22T15:15:26.208Z,6.95
2023-01-22T15:17:54.656Z,6.90
2023-01-22T15:20:22.454Z,6.91
2023-01-22T15:22:49.821Z,6.89
2023-01-22T15:25:17.868Z,6.89
2023-01-22T15:27:44.634Z,6.83
2023-01-22T15:30:13.205Z,6.84
2023-01-22T15:32:40.028Z,6.85
2023-01-22T15:35:07.089Z,6.89
2023-01-22T15:37:33.932Z,6.93
2023-01-22T15:40:00.675Z,6.95
2023-01-22T15:42:27.503Z,6.91
2023-01-22T15:44:54.159Z,6.86
2023-01-22T15:47:20.926Z,6.88
2023-01-22T15:49:47.619Z,6.89
2023-01-22T15:52:14.352Z,6.88
2023-01-22T15:54:41.040Z,6.87
2023-01-22T15:57:07.834Z,6.91
2023-01-22T15:59:37.824Z,6.92
2023-01-22T16:02:04.607Z,6.93
2023-01-22T16:04:31.390Z,6.92
2023-01-22T16:06:58.121Z,6.90
2023-01-22T16:09:24.817Z,6.92
2023-01-22T16:11:52.489Z,6.88
2023-01-22T16:14:22.097Z,6.87
2023-01-22T16:16:48.951Z,6.82
2023-01-22T16:19:15.801Z,6.70
2023-01-22T16:21:44.970Z,6.68
2023-01-22T16:24:11.716Z,6.74
2023-01-22T16:26:38.417Z,6.79
2023-01-22T16:29:06.094Z,6.81
2023-01-22T16:31:34.995Z,6.76
2023-01-22T16:34:09.042Z,6.75
2023-01-22T16:36:35.863Z,6.76
2023-01-22T16:39:03.459Z,6.75
2023-01-22T16:41:32.437Z,6.76
2023-01-22T16:44:10.217Z,6.76
2023-01-22T16:46:42.208Z,6.74
2023-01-22T16:49:18.282Z,6.74
2023-01-22T16:51:47.756Z,6.71
2023-01-22T16:54:27.869Z,6.72
2023-01-22T16:56:59.923Z,6.71
2023-01-22T16:59:27.793Z,6.73
2023-01-22T17:01:55.810Z,6.72
2023-01-22T17:04:22.752Z,6.74
2023-01-22T17:06:51.876Z,6.79
2023-01-22T17:09:21.995Z,6.76
2023-01-22T17:11:53.713Z,6.75
2023-01-22T17:14:23.396Z,6.68
2023-01-22T17:16:50.943Z,6.69
2023-01-22T17:19:21.927Z,6.63
2023-01-22T17:21:55.280Z,6.68
2023-01-22T17:24:22.631Z,6.66
2023-01-22T17:26:50.502Z,6.66
2023-01-22T17:29:19.764Z,6.70
2023-01-22T17:31:47.174Z,6.69
2023-01-22T17:34:14.511Z,6.68
2023-01-22T17:36:41.756Z,6.72
2023-01-22T17:39:15.955Z,6.71
2023-01-22T17:41:43.850Z,6.69
2023-01-22T17:44:11.797Z,6.70
2023-01-22T17:46:39.067Z,6.74
2023-01-22T17:49:06.062Z,6.70
2023-01-22T17:51:34.396Z,6.70
2023-01-22T17:54:03.110Z,6.65
2023-01-22T17:56:35.720Z,6.66
2023-01-22T17:59:06.003Z,6.71
2023-01-22T18:01:35.782Z,6.69
2023-01-22T18:04:06.150Z,6.70
2023-01-22T18:06:33.853Z,6.69
2023-01-22T18:09:00.891Z,6.71
2023-01-22T18:11:29.507Z,6.72
2023-01-22T18:14:05.097Z,6.74
2023-01-22T18:16:35.260Z,6.70
2023-01-22T18:19:05.379Z,6.84
2023-01-22T18:21:32.126Z,6.80
2023-01-22T18:24:03.667Z,6.79
2023-01-22T18:26:30.487Z,6.77
2023-01-22T18:28:58.851Z,6.73
2023-01-22T18:31:27.114Z,6.72
2023-01-22T18:33:55.801Z,6.74
2023-01-22T18:36:25.037Z,6.72
2023-01-22T18:38:52.555Z,6.76
2023-01-22T18:41:23.698Z,6.70
2023-01-22T18:43:53.700Z,6.70
2023-01-22T18:46:21.956Z,6.69
2023-01-22T18:48:56.360Z,6.70
2023-01-22T18:51:24.581Z,6.72
2023-01-22T18:53:51.493Z,6.71
2023-01-22T18:56:18.449Z,6.73
2023-01-22T18:58:45.946Z,6.77
2023-01-22T19:01:20.240Z,6.75
2023-01-22T19:03:50.296Z,6.78
2023-01-22T19:06:19.729Z,6.78
2023-01-22T19:08:54.682Z,6.86
2023-01-22T19:11:21.858Z,6.83
2023-01-22T19:13:49.315Z,6.82
2023-01-22T19:16:17.651Z,6.77
2023-01-22T19:18:48.856Z,6.76
2023-01-22T19:21:18.675Z,6.74
2023-01-22T19:23:50.566Z,6.74
2023-01-22T19:26:23.691Z,6.68
2023-01-22T19:28:53.829Z,6.60
2023-01-22T19:31:23.518Z,6.51
2023-01-22T19:33:52.590Z,6.59
2023-01-22T19:36:20.502Z,6.58
2023-01-22T19:38:47.519Z,6.53
2023-01-22T19:41:14.445Z,6.57
2023-01-22T19:43:42.043Z,6.60
2023-01-22T19:46:12.498Z,6.62
2023-01-22T19:48:40.194Z,6.62
2023-01-22T19:51:10.468Z,6.53
2023-01-22T19:53:37.690Z,6.49
2023-01-22T19:56:05.345Z,6.66
2023-01-22T19:58:32.146Z,6.67
2023-01-22T20:00:58.931Z,6.62
2023-01-22T20:03:27.065Z,6.62
2023-01-22T20:05:54.317Z,6.59
2023-01-22T20:08:21.111Z,6.66
2023-01-22T20:10:50.972Z,6.67
2023-01-22T20:13:17.841Z,6.65
2023-01-22T20:15:44.588Z,6.68
2023-01-22T20:18:11.280Z,6.68
2023-01-22T20:20:38.023Z,6.64
2023-01-22T20:23:04.823Z,6.66
2023-01-22T20:25:32.160Z,6.59
2023-01-22T20:28:00.457Z,6.61
2023-01-22T20:30:27.663Z,6.62
2023-01-22T20:32:56.452Z,6.69
2023-01-22T20:35:23.350Z,6.65
2023-01-22T20:37:50.194Z,6.57
2023-01-22T20:40:17.158Z,6.69
2023-01-22T20:42:44.026Z,6.69
2023-01-22T20:45:10.901Z,6.70
2023-01-22T20:47:38.111Z,6.76
2023-01-22T20:50:05.929Z,6.74
2023-01-22T20:52:33.037Z,6.75
2023-01-22T20:55:02.431Z,6.75
2023-01-22T20:57:31.190Z,6.67
2023-01-22T20:59:58.097Z,6.61
2023-01-22T21:02:24.915Z,6.57
2023-01-22T21:04:52.926Z,6.51
2023-01-22T21:07:20.305Z,6.51
2023-01-22T21:09:47.168Z,6.51
2023-01-22T21:12:15.542Z,6.57
2023-01-22T21:14:42.467Z,6.60
2023-01-22T21:17:09.196Z,6.62
2023-01-22T21:19:35.927Z,6.65
2023-01-22T21:22:03.939Z,6.69
2023-01-22T21:24:31.156Z,6.73
2023-01-22T21:26:58.012Z,6.76
2023-01-22T21:29:25.025Z,6.79
2023-01-22T21:31:52.822Z,6.73
2023-01-22T21:34:22.584Z,6.77
2023-01-22T21:36:51.027Z,6.73
2023-01-22T21:39:24.077Z,6.71
2023-01-22T21:41:51.644Z,6.69
2023-01-22T21:44:38.010Z,6.66
2023-01-22T21:47:05.392Z,6.63
2023-01-22T21:49:34.790Z,6.60
2023-01-22T21:52:05.595Z,6.68
2023-01-22T21:54:37.239Z,6.65
2023-01-22T21:57:05.465Z,6.61
2023-01-22T21:59:32.567Z,6.60
2023-01-22T22:01:59.342Z,6.59
2023-01-22T22:04:27.386Z,6.63
2023-01-22T22:06:54.618Z,6.62
2023-01-22T22:09:23.827Z,6.61
2023-01-22T22:11:54.379Z,6.62
2023-01-22T22:14:21.251Z,6.65
2023-01-22T22:16:48.225Z,6.64
2023-01-22T22:19:16.367Z,6.61
2023-01-22T22:21:43.167Z,6.58
2023-01-22T22:24:10.725Z,6.58
2023-01-22T22:26:38.880Z,6.58
2023-01-22T22:29:07.213Z,6.59
2023-01-22T22:31:34.929Z,6.63
2023-01-22T22:34:01.738Z,6.63
2023-01-22T22:36:30.406Z,6.68
2023-01-22T22:38:57.680Z,6.67
2023-01-22T22:41:27.655Z,6.65
2023-01-22T22:43:55.692Z,6.64
2023-01-22T22:46:25.853Z,6.59
2023-01-22T22:48:54.593Z,6.51
2023-01-22T22:51:27.146Z,6.52
2023-01-22T22:53:57.397Z,6.52
2023-01-22T22:56:24.989Z,6.47
2023-01-22T22:58:51.982Z,6.47
2023-01-22T23:01:21.568Z,6.47
2023-01-22T23:03:48.599Z,6.42
2023-01-22T23:06:19.329Z,6.47
2023-01-22T23:08:52.133Z,6.50
2023-01-22T23:11:21.195Z,6.47
2023-01-22T23:13:49.499Z,6.47
2023-01-22T23:16:18.934Z,6.44
2023-01-22T23:18:48.120Z,6.42
2023-01-22T23:21:18.168Z,6.47
2023-01-22T23:23:45.494Z,6.39
2023-01-22T23:26:14.527Z,6.43
2023-01-22T23:28:41.491Z,6.44
2023-01-22T23:31:11.437Z,6.41
2023-01-22T23:33:39.160Z,6.45
2023-01-22T23:36:09.116Z,6.47
2023-01-22T23:38:36.250Z,6.52
2023-01-22T23:41:05.352Z,6.51
2023-01-22T23:43:32.519Z,6.43
2023-01-22T23:45:59.907Z,6.37
2023-01-22T23:48:26.819Z,6.36
2023-01-22T23:50:54.241Z,6.38
2023-01-22T23:53:22.175Z,6.37
2023-01-22T23:55:49.204Z,6.43
2023-01-22T23:58:16.073Z,6.43
